Nichioh Maru — JD3267 — position and weather

sailwx.info

Track history (hours):
 
Tides and Currents Weather Stations Pressure Air Temp Water Temp Dewpoint Dewpoint Depression Visibility Wind Speed Wind Dir Waves Ship Positions

Nichioh Maru

Last reported at 2016-Feb-07 21:33 UTC. Time now 2016-Feb-07 21:46 UTC.
Position N 34°30' E 135°11'.

Length 170 m; draft 6.5 m.

Type: Cargo ship. MMSI: 431003232.

Date/timePositionNaut miles runAvg speedWind from/ knotsBaromVisibWave heightAir tempDewpointWater temp
2016-Feb-07 21:33N 34°30' E 135°11'1514.5
2016-Feb-07 20:32N 34°18' E 134°60'1515.2
2016-Feb-07 19:33N 34°03' E 134°60'224 6.9
2016-Feb-06 11:10N 34°55' E 139°24'1620.1
2016-Feb-06 10:23N 35°04' E 139°40'1315.7
2016-Feb-06 09:33N 35°16' E 139°46'1111.5
2016-Feb-06 08:33N 35°27' E 139°46'3 2.8
2016-Feb-06 07:32N 35°30' E 139°46'0 0.0
2016-Feb-06 06:32N 35°30' E 139°46'0 0.0
2016-Feb-06 05:32N 35°30' E 139°46'0 0.0
2016-Feb-06 04:32N 35°30' E 139°46'3 3.0
2016-Feb-06 03:33N 35°29' E 139°43'1010.2
2016-Feb-06 02:33N 35°19' E 139°42'3 2.7
2016-Feb-06 01:33N 35°19' E 139°39'0 0.0
2016-Feb-06 00:33N 35°19' E 139°39'0 0.0
2016-Feb-05 23:33N 35°19' E 139°39'4 3.7
2016-Feb-05 22:33N 35°18' E 139°43'1010.0
2016-Feb-05 21:33N 35°08' E 139°45'24514.9
2016-Feb-05 05:03N 34°06' E 134°57'1020.1
2016-Feb-05 04:33N 34°16' E 134°58'2019.6
2016-Feb-05 03:33N 34°32' E 135°13'9 8.4
2016-Feb-05 02:31N 34°41' E 135°13'0 0.0
2016-Feb-05 01:31N 34°41' E 135°13'0 0.0
2016-Feb-05 00:25N 34°41' E 135°13'0 0.0
2016-Feb-04 23:30N 34°41' E 135°13'1 1.4
2016-Feb-04 22:33N 34°40' E 135°15'4 3.7
2016-Feb-04 21:32N 34°36' E 135°16'0 0.0
2016-Feb-04 20:32N 34°36' E 135°16'0 0.1
2016-Feb-04 19:32N 34°36' E 135°16'0 0.0
2016-Feb-04 18:32N 34°36' E 135°16'0 0.0
2016-Feb-04 17:32N 34°36' E 135°16'0 0.0
2016-Feb-04 16:32N 34°36' E 135°16'0 0.0
2016-Feb-04 15:20N 34°36' E 135°16'0 0.0
2016-Feb-04 14:26N 34°36' E 135°16'0 0.0
2016-Feb-04 13:32N 34°36' E 135°16'0 0.0
2016-Feb-04 12:20N 34°36' E 135°16'0 0.0
2016-Feb-04 11:32N 34°36' E 135°16'0 0.0
2016-Feb-04 10:20N 34°36' E 135°16'0 0.0
2016-Feb-04 09:26N 34°36' E 135°16'3 3.4
2016-Feb-04 08:33N 34°35' E 135°12'  
2016-Feb-01 07:22N 34°36' E 134°55'1518.6
2016-Feb-01 06:34N 34°36' E 135°13'4 4.3
2016-Feb-01 05:33N 34°41' E 135°13'0 0.0
2016-Feb-01 04:31N 34°41' E 135°13'0 0.0
2016-Feb-01 03:31N 34°41' E 135°13'0 0.0
2016-Feb-01 02:25N 34°41' E 135°13'0 0.0
2016-Feb-01 01:26N 34°41' E 135°13'0 0.0
2016-Feb-01 00:31N 34°41' E 135°13'0 0.0
2016-Jan-31 23:32N 34°41' E 135°13'6 5.8
2016-Jan-31 22:34N 34°35' E 135°15'1212.4
2016-Jan-31 21:33N 34°25' E 135°06'1414.0
2016-Jan-31 20:34N 34°13' E 134°59'1414.4
2016-Jan-31 19:33N 33°59' E 134°60'228 7.5
2016-Jan-30 13:11N 34°59' E 139°27'1321.0
2016-Jan-30 12:33N 35°05' E 139°41'1313.2
2016-Jan-30 11:33N 35°18' E 139°44'1212.3
2016-Jan-30 10:34N 35°30' E 139°46'0 0.2
2016-Jan-30 09:33N 35°30' E 139°46'0 0.0
2016-Jan-30 08:33N 35°30' E 139°46'0 0.0
2016-Jan-30 07:34N 35°30' E 139°46'0 0.0
2016-Jan-30 06:33N 35°30' E 139°46'0 0.0
2016-Jan-30 05:34N 35°30' E 139°46'0 0.0
2016-Jan-30 04:33N 35°30' E 139°46'4 3.9
2016-Jan-30 03:34N 35°28' E 139°42'9 8.8
2016-Jan-30 02:34N 35°19' E 139°41'1 1.2
2016-Jan-30 01:29N 35°19' E 139°39'0 0.0
2016-Jan-30 00:32N 35°19' E 139°39'0 0.0
2016-Jan-29 23:32N 35°19' E 139°39'0 0.0
2016-Jan-29 22:29N 35°19' E 139°39'5 5.2
2016-Jan-29 21:33N 35°18' E 139°45'10 9.6
2016-Jan-29 20:33N 35°08' E 139°47'24716.0
2016-Jan-29 05:05N 34°00' E 134°58'1221.0
2016-Jan-29 04:33N 34°12' E 134°58'1919.4
2016-Jan-29 03:33N 34°29' E 135°09'1312.6
2016-Jan-29 02:34N 34°41' E 135°13'0 0.0
2016-Jan-29 01:21N 34°41' E 135°13'0 0.0
2016-Jan-29 00:33N 34°41' E 135°13'0 0.0
2016-Jan-28 23:33N 34°41' E 135°13'2 2.3
2016-Jan-28 22:33N 34°39' E 135°16'  
Track history (hours):
 
Tides and Currents Weather Stations Pressure Air Temp Water Temp Dewpoint Dewpoint Depression Visibility Wind Speed Wind Dir Waves Ship Positions

Nichioh Maru

Last reported at 2016-Feb-07 21:33 UTC. Time now 2016-Feb-07 21:46 UTC.
Position N 34°30' E 135°11'.

Length 170 m; draft 6.5 m.

Type: Cargo ship. MMSI: 431003232.

Date/timePositionNaut miles runAvg speedWind from/ knotsBaromVisibWave heightAir tempDewpointWater temp
2016-Feb-07 21:33N 34°30' E 135°11'1514.5
2016-Feb-07 20:32N 34°18' E 134°60'1515.2
2016-Feb-07 19:33N 34°03' E 134°60'224 6.9
2016-Feb-06 11:10N 34°55' E 139°24'1620.1
2016-Feb-06 10:23N 35°04' E 139°40'1315.7
2016-Feb-06 09:33N 35°16' E 139°46'1111.5
2016-Feb-06 08:33N 35°27' E 139°46'3 2.8
2016-Feb-06 07:32N 35°30' E 139°46'0 0.0
2016-Feb-06 06:32N 35°30' E 139°46'0 0.0
2016-Feb-06 05:32N 35°30' E 139°46'0 0.0
2016-Feb-06 04:32N 35°30' E 139°46'3 3.0
2016-Feb-06 03:33N 35°29' E 139°43'1010.2
2016-Feb-06 02:33N 35°19' E 139°42'3 2.7
2016-Feb-06 01:33N 35°19' E 139°39'0 0.0
2016-Feb-06 00:33N 35°19' E 139°39'0 0.0
2016-Feb-05 23:33N 35°19' E 139°39'4 3.7
2016-Feb-05 22:33N 35°18' E 139°43'1010.0
2016-Feb-05 21:33N 35°08' E 139°45'24514.9
2016-Feb-05 05:03N 34°06' E 134°57'1020.1
2016-Feb-05 04:33N 34°16' E 134°58'2019.6
2016-Feb-05 03:33N 34°32' E 135°13'9 8.4
2016-Feb-05 02:31N 34°41' E 135°13'0 0.0
2016-Feb-05 01:31N 34°41' E 135°13'0 0.0
2016-Feb-05 00:25N 34°41' E 135°13'0 0.0
2016-Feb-04 23:30N 34°41' E 135°13'1 1.4
2016-Feb-04 22:33N 34°40' E 135°15'4 3.7
2016-Feb-04 21:32N 34°36' E 135°16'0 0.0
2016-Feb-04 20:32N 34°36' E 135°16'0 0.1
2016-Feb-04 19:32N 34°36' E 135°16'0 0.0
2016-Feb-04 18:32N 34°36' E 135°16'0 0.0
2016-Feb-04 17:32N 34°36' E 135°16'0 0.0
2016-Feb-04 16:32N 34°36' E 135°16'0 0.0
2016-Feb-04 15:20N 34°36' E 135°16'0 0.0
2016-Feb-04 14:26N 34°36' E 135°16'0 0.0
2016-Feb-04 13:32N 34°36' E 135°16'0 0.0
2016-Feb-04 12:20N 34°36' E 135°16'0 0.0
2016-Feb-04 11:32N 34°36' E 135°16'0 0.0
2016-Feb-04 10:20N 34°36' E 135°16'0 0.0
2016-Feb-04 09:26N 34°36' E 135°16'3 3.4
2016-Feb-04 08:33N 34°35' E 135°12'  
2016-Feb-01 07:22N 34°36' E 134°55'1518.6
2016-Feb-01 06:34N 34°36' E 135°13'4 4.3
2016-Feb-01 05:33N 34°41' E 135°13'0 0.0
2016-Feb-01 04:31N 34°41' E 135°13'0 0.0
2016-Feb-01 03:31N 34°41' E 135°13'0 0.0
2016-Feb-01 02:25N 34°41' E 135°13'0 0.0
2016-Feb-01 01:26N 34°41' E 135°13'0 0.0
2016-Feb-01 00:31N 34°41' E 135°13'0 0.0
2016-Jan-31 23:32N 34°41' E 135°13'6 5.8
2016-Jan-31 22:34N 34°35' E 135°15'1212.4
2016-Jan-31 21:33N 34°25' E 135°06'1414.0
2016-Jan-31 20:34N 34°13' E 134°59'1414.4
2016-Jan-31 19:33N 33°59' E 134°60'228 7.5
2016-Jan-30 13:11N 34°59' E 139°27'1321.0
2016-Jan-30 12:33N 35°05' E 139°41'1313.2
2016-Jan-30 11:33N 35°18' E 139°44'1212.3
2016-Jan-30 10:34N 35°30' E 139°46'0 0.2
2016-Jan-30 09:33N 35°30' E 139°46'0 0.0
2016-Jan-30 08:33N 35°30' E 139°46'0 0.0
2016-Jan-30 07:34N 35°30' E 139°46'0 0.0
2016-Jan-30 06:33N 35°30' E 139°46'0 0.0
2016-Jan-30 05:34N 35°30' E 139°46'0 0.0
2016-Jan-30 04:33N 35°30' E 139°46'4 3.9
2016-Jan-30 03:34N 35°28' E 139°42'9 8.8
2016-Jan-30 02:34N 35°19' E 139°41'1 1.2
2016-Jan-30 01:29N 35°19' E 139°39'0 0.0
2016-Jan-30 00:32N 35°19' E 139°39'0 0.0
2016-Jan-29 23:32N 35°19' E 139°39'0 0.0
2016-Jan-29 22:29N 35°19' E 139°39'5 5.2
2016-Jan-29 21:33N 35°18' E 139°45'10 9.6
2016-Jan-29 20:33N 35°08' E 139°47'24716.0
2016-Jan-29 05:05N 34°00' E 134°58'1221.0
2016-Jan-29 04:33N 34°12' E 134°58'1919.4
2016-Jan-29 03:33N 34°29' E 135°09'1312.6
2016-Jan-29 02:34N 34°41' E 135°13'0 0.0
2016-Jan-29 01:21N 34°41' E 135°13'0 0.0
2016-Jan-29 00:33N 34°41' E 135°13'0 0.0
2016-Jan-28 23:33N 34°41' E 135°13'2 2.3
2016-Jan-28 22:33N 34°39' E 135°16'  

Dump ship's entire track history